Time;durP1;ratioP1;P1;durP2;ratioP2;P2;SDS_P1;SDS_P2;PMS_P1;PMS_P2;Temp;Humidity;BMP_temperature;BMP_pressure;BME280_temperature;BME280_humidity;BME280_pressure;Samples;Min_cycle;Max_cycle;Signal;HPM_P1;HPM_P2
2022/12/27 00:00:51;;;;;;;6.80;1.50;;;;;;;2.64;100.00;93771.13;2085631;28;20060;-83
2022/12/27 00:01:53;;;;;;;4.95;1.50;;;;;;;2.51;100.00;93765.97;2085908;28;20017;-85
2022/12/27 00:02:53;;;;;;;3.83;1.80;;;;;;;2.63;100.00;93775.59;2085360;28;20017;-84
2022/12/27 00:03:55;;;;;;;5.50;1.60;;;;;;;2.71;100.00;93777.28;2089736;28;20031;-83
2022/12/27 00:04:56;;;;;;;4.88;1.60;;;;;;;2.52;100.00;93791.25;2093660;28;20036;-82
2022/12/27 00:05:57;;;;;;;4.85;1.60;;;;;;;2.40;100.00;93780.84;2086269;28;20043;-82
2022/12/27 00:07:01;;;;;;;4.20;1.42;;;;;;;2.48;100.00;93784.38;2090682;28;20020;-82
2022/12/27 00:08:02;;;;;;;9.73;2.10;;;;;;;2.48;100.00;93787.03;2089742;28;20116;-85
2022/12/27 00:09:05;;;;;;;5.65;1.63;;;;;;;2.40;100.00;93786.09;2092114;28;20742;-83
2022/12/27 00:10:08;;;;;;;4.22;1.85;;;;;;;2.61;100.00;93783.13;2092209;28;20601;-85
2022/12/27 00:11:12;;;;;;;5.32;1.80;;;;;;;2.63;100.00;93775.59;2082274;28;20068;-84
2022/12/27 00:12:13;;;;;;;8.80;1.50;;;;;;;2.71;100.00;93785.19;2087725;28;20414;-84
2022/12/27 00:13:14;;;;;;;2.65;1.40;;;;;;;2.85;100.00;93787.31;2094676;28;20036;-84
2022/12/27 00:14:15;;;;;;;3.28;1.55;;;;;;;2.67;100.00;93786.25;2083162;28;20032;-85
2022/12/27 00:15:16;;;;;;;9.38;1.67;;;;;;;2.70;100.00;93780.28;2084424;28;20025;-82
2022/12/27 00:16:20;;;;;;;3.78;1.63;;;;;;;2.78;100.00;93781.94;2087586;28;20029;-83
2022/12/27 00:17:21;;;;;;;1.70;1.33;;;;;;;2.63;100.00;93780.88;2087250;28;20021;-85
2022/12/27 00:18:28;;;;;;;4.93;1.73;;;;;;;2.51;100.00;93781.81;2096601;28;20523;-84
2022/12/27 00:19:30;;;;;;;3.03;1.60;;;;;;;2.48;100.00;93781.75;2115369;27;20028;-84
2022/12/27 00:20:31;;;;;;;5.03;1.60;;;;;;;2.59;100.00;93781.94;2112624;28;20088;-83
2022/12/27 00:21:36;;;;;;;4.07;1.45;;;;;;;2.40;100.00;93772.91;2091824;28;20028;-83
2022/12/27 00:22:39;;;;;;;3.90;1.50;;;;;;;2.61;100.00;93785.75;2095475;28;20050;-84
2022/12/27 00:23:45;;;;;;;5.63;1.70;;;;;;;2.58;100.00;93773.25;2081444;28;20021;-84
2022/12/27 00:24:46;;;;;;;4.15;1.50;;;;;;;2.49;100.00;93776.09;2082612;28;20112;-83
2022/12/27 00:25:48;;;;;;;4.45;1.42;;;;;;;2.66;100.00;93774.16;2089858;28;20151;-83
2022/12/27 00:26:50;;;;;;;2.65;1.60;;;;;;;2.74;100.00;93776.59;2104700;28;20455;-84
2022/12/27 00:27:59;;;;;;;4.80;1.73;;;;;;;2.60;100.00;93775.56;2097941;28;20024;-84
2022/12/27 00:29:00;;;;;;;3.55;1.63;;;;;;;2.43;100.00;93787.31;2082640;28;20032;-83
2022/12/27 00:30:02;;;;;;;3.22;1.60;;;;;;;2.44;100.00;93778.28;2089424;28;20063;-84
2022/12/27 00:31:06;;;;;;;3.00;1.58;;;;;;;2.68;100.00;93785.16;2089843;28;20040;-83
2022/12/27 00:32:09;;;;;;;4.90;1.80;;;;;;;2.57;100.00;93774.38;2090114;28;20025;-84
2022/12/27 00:33:11;;;;;;;4.60;1.60;;;;;;;2.67;100.00;93768.53;2092616;28;20112;-84
2022/12/27 00:34:12;;;;;;;4.93;1.38;;;;;;;2.50;100.00;93776.88;2097874;28;20024;-84
2022/12/27 00:35:14;;;;;;;3.97;1.45;;;;;;;2.46;100.00;93776.06;2106372;28;20031;-86
2022/12/27 00:36:26;;;;;;;7.93;1.88;;;;;;;2.46;100.00;93782.09;2100741;28;20023;-85
2022/12/27 00:37:28;;;;;;;5.57;1.90;;;;;;;2.27;100.00;93779.44;2100297;28;20056;-84
2022/12/27 00:38:30;;;;;;;6.47;1.90;;;;;;;2.19;100.00;93773.25;2097893;28;20038;-84
2022/12/27 00:39:31;;;;;;;3.10;1.55;;;;;;;2.21;100.00;93783.47;2098036;28;20489;-85
2022/12/27 00:40:32;;;;;;;4.32;1.80;;;;;;;2.12;100.00;93783.66;2094785;28;20036;-84
2022/12/27 00:41:35;;;;;;;3.45;1.70;;;;;;;2.29;100.00;93777.22;2097847;28;20025;-84
2022/12/27 00:42:36;;;;;;;4.43;1.48;;;;;;;2.48;100.00;93781.75;2105778;28;20376;-84
2022/12/27 00:43:37;;;;;;;4.60;1.60;;;;;;;2.31;100.00;93790.81;2106155;28;20032;-84
2022/12/27 00:44:38;;;;;;;2.25;1.80;;;;;;;2.26;100.00;93793.75;2106222;28;20020;-84
2022/12/27 00:45:39;;;;;;;3.30;1.45;;;;;;;2.26;100.00;93799.78;2106389;28;20016;-84
2022/12/27 00:46:41;;;;;;;4.68;1.65;;;;;;;2.20;100.00;93785.34;2114955;28;20027;-83
2022/12/27 00:47:42;;;;;;;5.88;1.67;;;;;;;2.38;100.00;93795.50;2107932;28;20024;-85
2022/12/27 00:48:45;;;;;;;4.28;1.35;;;;;;;2.40;100.00;93795.91;2113160;28;20016;-85
2022/12/27 00:49:46;;;;;;;6.70;1.60;;;;;;;2.33;100.00;93807.09;2098133;28;20361;-83
2022/12/27 00:50:47;;;;;;;7.97;1.73;;;;;;;2.06;100.00;93800.84;2098627;28;20031;-83
2022/12/27 00:51:48;;;;;;;3.33;1.30;;;;;;;2.05;100.00;93788.03;2106437;28;20024;-84
2022/12/27 00:52:49;;;;;;;5.45;1.75;;;;;;;1.93;100.00;93794.16;2097763;28;20496;-83
2022/12/27 00:53:52;;;;;;;2.97;1.50;;;;;;;1.85;100.00;93793.25;2097449;28;20167;-84
2022/12/27 00:54:53;;;;;;;4.18;1.70;;;;;;;1.89;100.00;93804.66;2106016;28;20133;-84
2022/12/27 00:55:54;;;;;;;1.77;1.30;;;;;;;1.78;100.00;93795.72;2097672;28;20070;-83
2022/12/27 00:56:55;;;;;;;3.35;1.60;;;;;;;1.93;100.00;93796.81;2114101;28;20039;-84
2022/12/27 00:58:00;;;;;;;3.63;1.60;;;;;;;1.73;100.00;93794.13;2101167;28;20094;-83
2022/12/27 00:59:03;;;;;;;4.13;1.52;;;;;;;1.68;100.00;93791.00;2097589;28;20115;-83
2022/12/27 01:00:05;;;;;;;5.93;1.40;;;;;;;1.63;100.00;93794.66;2101287;28;20032;-84
2022/12/27 01:01:13;;;;;;;1.95;1.40;;;;;;;1.84;100.00;93806.78;2114964;28;20102;-83
2022/12/27 01:02:14;;;;;;;3.20;1.58;;;;;;;1.77;100.00;93802.88;2111789;28;21644;-83
2022/12/27 01:03:16;;;;;;;4.30;1.52;;;;;;;1.67;100.00;93800.00;2106078;28;20024;-84
2022/12/27 01:04:17;;;;;;;1.60;1.45;;;;;;;1.92;100.00;93801.31;2089445;28;20108;-85
2022/12/27 01:05:18;;;;;;;2.92;1.40;;;;;;;1.63;100.00;93807.84;2089266;28;20025;-84
2022/12/27 01:06:28;;;;;;;3.72;1.30;;;;;;;1.50;100.00;93806.41;2097467;28;20350;-85
2022/12/27 01:07:29;;;;;;;5.13;1.35;;;;;;;1.44;100.00;93813.78;2097674;28;20028;-84
2022/12/27 01:08:30;;;;;;;2.17;1.45;;;;;;;1.43;100.00;93803.59;2089142;28;20126;-84
2022/12/27 01:09:31;;;;;;;5.45;1.50;;;;;;;1.51;100.00;93805.28;2089188;28;20036;-83
2022/12/27 01:10:32;;;;;;;4.82;1.73;;;;;;;1.40;100.00;93807.66;2088964;28;20470;-84
2022/12/27 01:11:36;;;;;;;3.80;1.88;;;;;;;1.48;100.00;93812.00;2090032;28;20029;-85
2022/12/27 01:12:37;;;;;;;2.03;1.48;;;;;;;1.45;100.00;93809.28;2089540;28;20025;-84
2022/12/27 01:13:38;;;;;;;3.83;1.83;;;;;;;1.43;100.00;93806.22;2081387;28;20025;-84
2022/12/27 01:14:39;;;;;;;3.97;1.65;;;;;;;1.62;100.00;93808.16;2089625;28;20063;-84
2022/12/27 01:15:41;;;;;;;3.83;1.58;;;;;;;1.66;100.00;93822.94;2097963;28;20017;-84
2022/12/27 01:16:49;;;;;;;7.82;1.77;;;;;;;1.56;100.00;93814.81;2097477;28;20024;-83
2022/12/27 01:17:50;;;;;;;4.00;1.73;;;;;;;1.48;100.00;93814.63;2081846;28;20033;-83
2022/12/27 01:18:52;;;;;;;2.03;1.50;;;;;;;1.63;100.00;93821.00;2094343;28;20048;-83
2022/12/27 01:19:53;;;;;;;4.50;1.40;;;;;;;1.84;100.00;93817.31;2089476;28;20038;-84
2022/12/27 01:20:54;;;;;;;5.78;1.60;;;;;;;1.65;100.00;93812.75;2097305;28;20062;-84
2022/12/27 01:22:01;;;;;;;7.43;1.55;;;;;;;1.55;100.00;93821.94;2090850;28;20029;-84
2022/12/27 01:23:03;;;;;;;2.90;1.30;;;;;;;1.51;100.00;93827.13;2090296;28;20496;-84
2022/12/27 01:24:04;;;;;;;4.97;1.27;;;;;;;1.46;100.00;93824.75;2089349;28;20056;-84
2022/12/27 01:25:05;;;;;;;2.25;1.52;;;;;;;1.37;100.00;93834.69;2097814;28;20024;-83
2022/12/27 01:26:15;;;;;;;5.13;1.40;;;;;;;1.47;100.00;93822.88;2106014;28;20016;-84
2022/12/27 01:27:16;;;;;;;2.78;1.20;;;;;;;1.44;100.00;93826.94;2105957;28;20032;-85
2022/12/27 01:28:17;;;;;;;3.20;1.40;;;;;;;1.72;100.00;93829.50;2098252;28;20028;-84
2022/12/27 01:29:18;;;;;;;3.13;1.52;;;;;;;1.66;100.00;93832.72;2113937;28;20035;-85
2022/12/27 01:30:19;;;;;;;4.45;1.60;;;;;;;1.56;100.00;93834.00;2097361;28;20082;-85
2022/12/27 01:31:29;;;;;;;4.13;1.70;;;;;;;1.66;100.00;93840.63;2089176;28;20017;-84
2022/12/27 01:32:32;;;;;;;5.20;1.70;;;;;;;1.71;100.00;93846.44;2099987;28;20017;-86
2022/12/27 01:33:34;;;;;;;4.43;1.50;;;;;;;1.66;100.00;93840.63;2106544;28;20036;-84
2022/12/27 01:34:35;;;;;;;4.05;1.60;;;;;;;1.85;100.00;93847.84;2111674;28;20024;-84
2022/12/27 01:35:36;;;;;;;3.45;1.17;;;;;;;1.87;100.00;93845.63;2097430;28;20017;-84
2022/12/27 01:36:41;;;;;;;6.45;1.40;;;;;;;1.66;100.00;93843.25;2106867;28;20019;-85
2022/12/27 01:37:47;;;;;;;4.40;1.55;;;;;;;1.55;100.00;93848.28;2107006;28;20123;-86
2022/12/27 01:38:48;;;;;;;2.63;1.60;;;;;;;1.50;100.00;93848.56;2106197;28;20016;-84
2022/12/27 01:39:49;;;;;;;6.93;1.70;;;;;;;1.43;100.00;93851.75;2097843;28;20484;-84
2022/12/27 01:40:50;;;;;;;3.15;1.13;;;;;;;1.42;100.00;93857.38;2097779;28;20032;-84
2022/12/27 01:43:17;;;;;;;4.15;1.27;;;;;;;1.41;100.00;93855.84;2094181;28;20490;-85
2022/12/27 01:44:37;;;;;;;3.80;1.60;;;;;;;1.39;100.00;93858.03;2089486;28;20063;-81
2022/12/27 01:45:37;;;;;;;5.75;1.65;;;;;;;1.37;100.00;93858.41;2099974;28;20024;-85
2022/12/27 01:46:49;;;;;;;2.78;1.40;;;;;;;1.41;100.00;93856.63;2089148;28;20029;-85
2022/12/27 01:47:58;;;;;;;4.03;1.70;;;;;;;1.45;100.00;93857.47;2094987;28;20028;-84
2022/12/27 01:48:59;;;;;;;4.28;1.60;;;;;;;1.40;100.00;93860.34;2098123;28;20032;-85
2022/12/27 01:50:03;;;;;;;4.78;1.42;;;;;;;1.33;100.00;93862.81;2097387;28;20029;-83
2022/12/27 01:51:05;;;;;;;3.67;1.38;;;;;;;1.36;100.00;93862.13;2098468;28;20040;-84
2022/12/27 01:52:10;;;;;;;3.70;1.40;;;;;;;1.29;100.00;93869.09;2106165;28;20376;-83
2022/12/27 01:53:17;;;;;;;4.13;1.58;;;;;;;1.22;100.00;93874.94;2105716;28;20107;-85
2022/12/27 01:54:19;;;;;;;4.43;1.30;;;;;;;1.22;100.00;93875.69;2090691;28;20098;-84
2022/12/27 01:55:23;;;;;;;3.95;1.42;;;;;;;1.25;100.00;93882.91;2106242;28;20024;-85
2022/12/27 01:56:30;;;;;;;3.63;1.23;;;;;;;1.16;100.00;93877.03;2105823;28;20028;-83
2022/12/27 01:57:41;;;;;;;5.60;1.25;;;;;;;1.14;100.00;93886.38;2101587;28;20046;-85
2022/12/27 01:58:55;;;;;;;3.20;1.23;;;;;;;1.14;100.00;93881.09;2099287;28;20029;-84
2022/12/27 01:59:56;;;;;;;3.67;1.27;;;;;;;1.08;100.00;93880.59;2107341;28;20549;-84
2022/12/27 02:00:58;;;;;;;4.82;1.65;;;;;;;1.05;100.00;93883.13;2105583;28;20020;-84
2022/12/27 02:01:59;;;;;;;4.28;1.23;;;;;;;0.98;100.00;93894.25;2113312;28;20066;-85
2022/12/27 02:03:03;;;;;;;1.38;0.93;;;;;;;0.86;100.00;93891.66;2097338;28;20054;-84
2022/12/27 02:04:13;;;;;;;4.32;1.10;;;;;;;0.94;100.00;93894.16;2089710;28;20107;-84
2022/12/27 02:05:17;;;;;;;2.17;0.90;;;;;;;0.89;100.00;93898.88;2098210;28;20038;-84
2022/12/27 02:06:20;;;;;;;1.55;0.95;;;;;;;0.90;100.00;93898.53;2105837;28;20035;-85
2022/12/27 02:07:40;;;;;;;3.30;1.10;;;;;;;0.90;100.00;93898.53;2106598;28;20035;-84
2022/12/27 02:08:54;;;;;;;5.28;1.13;;;;;;;0.90;100.00;93906.44;2094471;28;20028;-84
2022/12/27 02:09:58;;;;;;;4.05;1.10;;;;;;;0.81;100.00;93895.28;2101186;28;20036;-84
2022/12/27 02:10:59;;;;;;;2.88;1.10;;;;;;;0.85;100.00;93898.78;2098032;28;20025;-85
2022/12/27 02:12:10;;;;;;;3.45;1.15;;;;;;;0.90;100.00;93895.16;2105632;28;20039;-83
2022/12/27 02:13:11;;;;;;;3.20;1.10;;;;;;;0.87;100.00;93906.34;2105629;28;20043;-84
2022/12/27 02:14:14;;;;;;;3.42;1.10;;;;;;;0.88;100.00;93906.03;2113742;28;20787;-85
2022/12/27 02:15:15;;;;;;;3.47;1.10;;;;;;;0.97;100.00;93898.75;2105514;28;20027;-85
2022/12/27 02:53:02;;;;;;;1.92;1.02;;;;;;;0.77;100.00;93920.75;2576743;23;20000;-83
2022/12/27 02:54:28;;;;;;;1.02;0.88;;;;;;;0.94;100.00;93922.34;2547469;23;20460;-85
2022/12/27 02:55:40;;;;;;;2.03;0.98;;;;;;;1.05;100.00;93920.75;2526425;23;20006;-86
2022/12/27 02:57:07;;;;;;;2.17;1.17;;;;;;;1.09;100.00;93923.47;2564556;23;20091;-85
2022/12/27 02:58:08;;;;;;;2.75;0.90;;;;;;;0.97;100.00;93930.34;2565397;23;20383;-84
2022/12/27 03:03:27;;;;;;;2.97;1.10;;;;;;;0.89;100.00;93923.34;2585802;23;20447;-85
2022/12/27 03:04:48;;;;;;;2.60;1.00;;;;;;;0.82;100.00;93922.38;2568375;23;20004;-85
2022/12/27 03:07:48;;;;;;;4.43;1.20;;;;;;;0.78;100.00;93930.16;2577892;23;20004;-82
2022/12/27 03:09:08;;;;;;;2.22;1.05;;;;;;;0.77;100.00;93933.13;2567193;23;20386;-84
2022/12/27 03:17:12;;;;;;;1.65;1.00;;;;;;;0.61;100.00;93949.59;2582629;23;20003;-84
2022/12/27 03:18:21;;;;;;;2.60;1.27;;;;;;;0.61;100.00;93951.47;2562200;23;20080;-84
2022/12/27 03:26:27;;;;;;;4.45;0.93;;;;;;;0.65;100.00;93945.19;2576381;23;20000;-85
2022/12/27 03:27:33;;;;;;;1.58;1.20;;;;;;;0.65;100.00;93941.81;2574331;22;20023;-85
2022/12/27 03:33:14;;;;;;;2.05;1.08;;;;;;;0.67;100.00;93939.63;2587606;22;20077;-83
2022/12/27 03:34:34;;;;;;;2.58;0.98;;;;;;;0.54;100.00;93940.75;2573368;23;20007;-84
2022/12/27 03:39:02;;;;;;;2.78;0.93;;;;;;;0.64;100.00;93945.53;2588202;22;20015;-84
2022/12/27 03:40:19;;;;;;;1.33;0.90;;;;;;;0.61;100.00;93952.22;2571313;23;20128;-82
2022/12/27 03:43:12;;;;;;;4.03;1.05;;;;;;;0.55;100.00;93950.16;2580063;22;20025;-85
2022/12/27 03:44:23;;;;;;;1.23;0.73;;;;;;;0.60;100.00;93950.69;2588112;22;20030;-85
2022/12/27 03:47:08;;;;;;;2.83;1.10;;;;;;;0.54;100.00;93949.41;2580688;22;20004;-83
2022/12/27 03:48:16;;;;;;;1.52;0.90;;;;;;;0.63;100.00;93949.28;2582390;23;20103;-85
2022/12/27 03:49:26;;;;;;;1.73;0.82;;;;;;;0.66;100.00;93956.50;2560190;23;20024;-83
2022/12/27 03:50:35;;;;;;;1.17;0.80;;;;;;;0.63;100.00;93957.16;2573977;22;20044;-85
2022/12/27 03:51:54;;;;;;;3.03;0.98;;;;;;;0.52;100.00;93956.09;2582779;23;20062;-81
2022/12/27 03:53:02;;;;;;;1.50;0.90;;;;;;;0.45;100.00;93954.03;2564936;23;20005;-85
2022/12/27 03:54:12;;;;;;;3.88;1.30;;;;;;;0.43;100.00;93953.56;2573019;22;20008;-86
2022/12/27 03:55:14;;;;;;;3.25;0.90;;;;;;;0.39;100.00;93952.69;2582826;23;20458;-84
2022/12/27 03:56:16;;;;;;;1.48;0.90;;;;;;;0.47;100.00;93957.84;2569547;23;20028;-84
2022/12/27 03:57:20;;;;;;;2.53;0.88;;;;;;;0.57;100.00;93951.38;2557365;23;20352;-84
2022/12/27 03:58:21;;;;;;;4.13;0.80;;;;;;;0.52;100.00;93958.72;2558504;23;20001;-85
2022/12/27 03:59:22;;;;;;;1.45;1.00;;;;;;;0.38;100.00;93951.16;2557474;23;20040;-85
2022/12/27 04:00:23;;;;;;;1.75;0.75;;;;;;;0.25;100.00;93956.44;2570279;22;20075;-84
2022/12/27 04:01:24;;;;;;;1.92;0.85;;;;;;;0.15;100.00;93950.84;2570188;23;20005;-84
2022/12/27 04:02:42;;;;;;;3.05;0.90;;;;;;;0.07;100.00;93946.47;2564149;23;19993;-84
2022/12/27 04:03:43;;;;;;;1.00;0.73;;;;;;;0.09;100.00;93954.78;2573157;22;20004;-85
2022/12/27 04:04:44;;;;;;;2.25;0.77;;;;;;;-0.02;100.00;93951.84;2569550;23;20001;-84
2022/12/27 04:05:45;;;;;;;5.60;1.00;;;;;;;-0.16;100.00;93957.41;2557520;23;20004;-84
2022/12/27 04:06:46;;;;;;;3.55;0.98;;;;;;;-0.16;100.00;93960.03;2557268;23;20345;-84
2022/12/27 04:34:44;;;;;;;0.77;0.73;;;;;;;-0.81;100.00;93957.13;2585837;22;20004;-84
2022/12/27 04:35:45;;;;;;;2.58;0.80;;;;;;;-0.79;100.00;93959.41;2594649;22;20006;-85
2022/12/27 04:36:46;;;;;;;0.88;0.63;;;;;;;-0.88;100.00;93956.13;2581976;23;20008;-85
2022/12/27 04:37:57;;;;;;;1.38;0.70;;;;;;;-0.92;100.00;93961.25;2584070;22;20004;-85
2022/12/27 04:38:58;;;;;;;1.02;0.80;;;;;;;-0.83;100.00;93961.94;2569491;23;20079;-85
2022/12/27 04:55:27;;;;;;;2.13;0.90;;;;;;;-1.11;100.00;93956.47;2586046;22;20067;-84
2022/12/27 04:56:28;;;;;;;2.55;0.93;;;;;;;-1.17;100.00;93959.59;2572767;23;20013;-84
2022/12/27 04:57:28;;;;;;;2.22;1.30;;;;;;;-1.16;100.00;93963.75;2556979;23;20001;-85
2022/12/27 04:58:31;;;;;;;2.22;1.08;;;;;;;-1.03;100.00;93958.25;2557525;23;20005;-86
2022/12/27 05:02:08;;;;;;;2.17;1.05;;;;;;;-1.05;100.00;93965.69;2576540;23;20091;-83
2022/12/27 05:02:48;;;;;;;;;;;;;;;-1.10;100.00;93960.63;2561154;23;20017;-83
2022/12/27 05:03:52;;;;;;;1.27;0.77;;;;;;;-1.14;100.00;93962.38;2563306;23;19920;-85
2022/12/27 05:04:53;;;;;;;0.85;0.50;;;;;;;-1.24;100.00;93962.72;2558454;23;20011;-84
2022/12/27 05:05:54;;;;;;;1.20;0.70;;;;;;;-1.19;100.00;93962.53;2569459;23;20011;-84
2022/12/27 05:06:56;;;;;;;0.98;0.88;;;;;;;-1.22;100.00;93965.81;2582492;22;20008;-85
2022/12/27 05:13:58;;;;;;;3.13;0.90;;;;;;;-1.34;100.00;93963.88;2586013;22;20008;-83
2022/12/27 05:14:40;;;;;;;1.60;0.90;;;;;;;-1.21;100.00;93964.72;2586136;22;20004;-85
2022/12/27 05:15:41;;;;;;;1.25;0.80;;;;;;;-1.24;100.00;93965.34;2569447;23;20123;-82
2022/12/27 05:16:48;;;;;;;5.10;0.90;;;;;;;-1.30;100.00;93962.16;2572031;22;20063;-85
2022/12/27 05:18:03;;;;;;;1.20;0.85;;;;;;;-1.31;100.00;93959.88;2584418;22;20365;-84
2022/12/27 05:19:06;;;;;;;1.98;0.85;;;;;;;-1.31;100.00;93970.34;2569439;23;20012;-83
2022/12/27 05:20:13;;;;;;;3.38;1.00;;;;;;;-1.35;100.00;93967.59;2582653;22;20014;-84
2022/12/27 05:21:20;;;;;;;1.05;0.90;;;;;;;-1.32;100.00;93966.97;2582329;23;20679;-83
2022/12/27 05:26:27;;;;;;;1.00;0.88;;;;;;;-1.27;100.00;93968.63;2586038;22;20004;-85
2022/12/27 05:27:29;;;;;;;1.40;0.80;;;;;;;-1.28;100.00;93967.06;2570436;23;20001;-84
2022/12/27 05:28:30;;;;;;;2.00;0.80;;;;;;;-1.24;100.00;93969.84;2581654;23;20007;-83
2022/12/27 05:29:34;;;;;;;2.45;0.95;;;;;;;-1.22;100.00;93965.06;2569367;23;20622;-85
2022/12/27 05:30:37;;;;;;;1.00;0.90;;;;;;;-1.25;100.00;93963.06;2558374;23;20626;-84
2022/12/27 05:31:43;;;;;;;1.75;0.80;;;;;;;-1.36;100.00;93965.28;2559664;23;20587;-83
2022/12/27 05:32:43;;;;;;;0.70;0.70;;;;;;;-1.44;100.00;93971.38;2570608;23;20008;-85
2022/12/27 05:33:45;;;;;;;3.55;1.13;;;;;;;-1.45;100.00;93975.06;2557169;23;20690;-83
2022/12/27 05:34:46;;;;;;;1.27;0.85;;;;;;;-1.48;100.00;93973.09;2569565;22;20032;-82
2022/12/27 05:35:47;;;;;;;3.35;1.10;;;;;;;-1.48;100.00;93971.22;2569241;23;20013;-84
2022/12/27 05:36:50;;;;;;;3.08;1.05;;;;;;;-1.45;100.00;93975.81;2557833;23;20092;-85
2022/12/27 05:37:54;;;;;;;2.67;1.05;;;;;;;-1.48;100.00;93967.84;2570416;22;20004;-85
2022/12/27 05:38:54;;;;;;;1.83;1.10;;;;;;;-1.53;100.00;93968.81;2581973;23;20392;-84
2022/12/27 05:39:55;;;;;;;0.98;0.80;;;;;;;-1.41;100.00;93974.09;2557470;23;20016;-84
2022/12/27 05:41:01;;;;;;;1.67;1.00;;;;;;;-1.36;100.00;93970.53;2556935;23;20016;-84
2022/12/27 05:42:02;;;;;;;1.92;1.20;;;;;;;-1.44;100.00;93968.75;2559148;23;20048;-85
2022/12/27 05:43:09;;;;;;;5.60;0.90;;;;;;;-1.48;100.00;93973.09;2572530;22;20003;-84
2022/12/27 05:44:10;;;;;;;5.70;0.90;;;;;;;-1.47;100.00;93970.13;2583222;22;20004;-84
2022/12/27 05:45:13;;;;;;;2.03;0.90;;;;;;;-1.37;100.00;93961.13;2582142;22;20004;-85
2022/12/27 05:46:17;;;;;;;1.50;0.70;;;;;;;-1.28;100.00;93967.06;2569954;23;20005;-83
2022/12/27 05:47:18;;;;;;;0.70;0.70;;;;;;;-1.31;100.00;93963.25;2558596;23;20503;-85
2022/12/27 05:48:22;;;;;;;1.25;0.85;;;;;;;-1.40;100.00;93965.16;2557309;23;20008;-83
2022/12/27 05:49:23;;;;;;;1.08;0.80;;;;;;;-1.39;100.00;93969.31;2570850;22;20004;-85
2022/12/27 05:50:25;;;;;;;0.68;0.68;;;;;;;-1.41;100.00;93968.09;2569624;23;20035;-84
2022/12/27 05:51:26;;;;;;;0.70;0.70;;;;;;;-1.43;100.00;93973.66;2569719;22;20038;-85
2022/12/27 05:52:29;;;;;;;1.00;0.90;;;;;;;-1.46;100.00;93966.44;2569453;23;20008;-84
2022/12/27 05:53:30;;;;;;;0.77;0.77;;;;;;;-1.45;100.00;93977.69;2570212;22;20000;-85
2022/12/27 05:54:31;;;;;;;1.33;0.70;;;;;;;-1.50;100.00;93970.78;2569296;23;20734;-85
2022/12/27 05:55:32;;;;;;;0.60;0.60;;;;;;;-1.49;100.00;93972.31;2569579;23;20008;-84
2022/12/27 05:56:46;;;;;;;0.65;0.65;;;;;;;-1.46;100.00;93986.63;2562414;23;20023;-85
2022/12/27 05:57:47;;;;;;;0.70;0.70;;;;;;;-1.39;100.00;93981.66;2572316;23;20063;-83
2022/12/27 05:58:52;;;;;;;1.10;0.70;;;;;;;-1.38;100.00;93991.06;2569053;23;20473;-85
2022/12/27 05:59:53;;;;;;;0.80;0.80;;;;;;;-1.42;100.00;93990.16;2558226;23;20035;-85
2022/12/27 06:00:54;;;;;;;1.70;0.80;;;;;;;-1.40;100.00;93988.00;2557070;23;20009;-83
2022/12/27 06:01:55;;;;;;;0.80;0.80;;;;;;;-1.38;100.00;93989.22;2569440;23;20112;-85
2022/12/27 06:02:56;;;;;;;1.92;0.75;;;;;;;-1.35;100.00;93987.81;2556992;23;20033;-85
2022/12/27 06:03:57;;;;;;;3.85;0.82;;;;;;;-1.35;100.00;93999.06;2556921;23;20100;-83
2022/12/27 06:04:58;;;;;;;2.05;0.77;;;;;;;-1.35;100.00;93993.06;2557032;23;20040;-84
2022/12/27 06:06:01;;;;;;;1.02;0.80;;;;;;;-1.41;100.00;93996.94;2556892;23;20020;-85
2022/12/27 06:07:15;;;;;;;1.73;0.80;;;;;;;-1.45;100.00;93993.41;2575619;22;20063;-84
2022/12/27 06:08:16;;;;;;;0.98;0.70;;;;;;;-1.47;100.00;93996.34;2569355;23;20008;-85
2022/12/27 06:09:17;;;;;;;1.10;0.90;;;;;;;-1.47;100.00;93995.59;2556863;23;20004;-83
2022/12/27 06:10:26;;;;;;;1.33;0.88;;;;;;;-1.42;100.00;94000.66;2556880;23;20108;-84
2022/12/27 06:11:27;;;;;;;2.50;0.90;;;;;;;-1.55;100.00;93995.31;2560165;23;20100;-84
2022/12/27 06:12:28;;;;;;;1.35;1.20;;;;;;;-1.50;100.00;93988.34;2557057;23;20001;-84
2022/12/27 06:13:29;;;;;;;1.85;1.10;;;;;;;-1.54;100.00;93991.63;2582209;22;20071;-85
2022/12/27 06:14:30;;;;;;;2.15;1.10;;;;;;;-1.47;100.00;93991.13;2581667;23;20004;-84
2022/12/27 06:15:31;;;;;;;2.28;1.00;;;;;;;-1.45;100.00;93985.53;2556838;23;20040;-84
2022/12/27 06:16:42;;;;;;;3.72;1.33;;;;;;;-1.44;100.00;93985.25;2573607;22;19996;-83
2022/12/27 06:17:43;;;;;;;2.33;1.17;;;;;;;-1.54;100.00;93988.22;2571458;23;20376;-83
2022/12/27 06:18:44;;;;;;;0.90;0.90;;;;;;;-1.54;100.00;93982.97;2568966;23;20498;-83
2022/12/27 06:19:45;;;;;;;4.03;1.10;;;;;;;-1.56;100.00;93985.16;2569064;23;20028;-85
2022/12/27 06:20:46;;;;;;;2.22;1.08;;;;;;;-1.68;100.00;93977.97;2556731;23;20009;-84
2022/12/27 06:21:47;;;;;;;0.90;0.88;;;;;;;-1.59;100.00;93989.16;2569220;22;20051;-84
2022/12/27 06:22:48;;;;;;;3.50;1.02;;;;;;;-1.57;100.00;93981.78;2569355;23;20001;-84
2022/12/27 06:23:50;;;;;;;1.25;1.05;;;;;;;-1.52;100.00;93992.06;2581710;22;20012;-83
2022/12/27 06:24:51;;;;;;;3.05;0.98;;;;;;;-1.50;100.00;93978.63;2581638;23;20455;-83
2022/12/27 06:25:51;;;;;;;1.60;1.00;;;;;;;-1.55;100.00;93984.06;2556826;23;20012;-86
2022/12/27 06:27:05;;;;;;;2.53;0.95;;;;;;;-1.65;100.00;93987.06;2574579;22;20008;-84
2022/12/27 06:28:06;;;;;;;2.17;1.10;;;;;;;-1.61;100.00;93987.97;2568971;23;20012;-85
2022/12/27 06:29:10;;;;;;;2.20;1.17;;;;;;;-1.64;100.00;93986.72;2569369;23;20016;-84
2022/12/27 06:30:11;;;;;;;1.40;1.30;;;;;;;-1.59;100.00;93989.16;2557976;23;20305;-84
2022/12/27 06:31:12;;;;;;;2.05;1.48;;;;;;;-1.60;100.00;93992.13;2556876;23;20005;-83
2022/12/27 06:32:16;;;;;;;3.33;1.40;;;;;;;-1.60;100.00;93992.88;2569418;22;20005;-84
2022/12/27 06:33:17;;;;;;;2.38;1.23;;;;;;;-1.71;100.00;93990.94;2582047;22;20050;-84
2022/12/27 06:34:18;;;;;;;2.95;0.95;;;;;;;-1.66;100.00;93991.53;2581490;22;20474;-84
2022/12/27 06:35:19;;;;;;;1.23;1.05;;;;;;;-1.65;100.00;93989.69;2568951;23;20008;-83
2022/12/27 06:36:22;;;;;;;2.55;1.20;;;;;;;-1.60;100.00;93981.63;2568932;22;20064;-85
2022/12/27 06:37:23;;;;;;;2.70;1.10;;;;;;;-1.57;100.00;93981.00;2581653;22;20031;-85
2022/12/27 06:38:24;;;;;;;1.65;1.20;;;;;;;-1.59;100.00;93981.31;2581101;23;20007;-84
2022/12/27 06:39:25;;;;;;;1.88;1.20;;;;;;;-1.62;100.00;93986.44;2556379;23;20440;-84
2022/12/27 06:40:27;;;;;;;2.83;1.27;;;;;;;-1.45;100.00;93988.16;2556235;23;20013;-85
2022/12/27 06:41:33;;;;;;;2.58;1.17;;;;;;;-1.44;100.00;93997.59;2580617;23;20004;-84
2022/12/27 06:42:34;;;;;;;1.95;1.30;;;;;;;-1.51;100.00;94003.31;2557689;23;20001;-84
2022/12/27 06:43:35;;;;;;;1.48;1.17;;;;;;;-1.55;100.00;94000.56;2582085;22;20008;-85
2022/12/27 06:44:36;;;;;;;2.35;1.30;;;;;;;-1.50;100.00;93999.59;2581206;22;20020;-84
2022/12/27 06:45:37;;;;;;;1.92;1.20;;;;;;;-1.57;100.00;93999.34;2581412;23;20004;-85
2022/12/27 06:46:38;;;;;;;2.00;1.40;;;;;;;-1.61;100.00;93999.22;2568813;22;20009;-85
2022/12/27 06:47:39;;;;;;;3.85;1.15;;;;;;;-1.60;100.00;93994.75;2569249;23;19996;-84
2022/12/27 06:48:40;;;;;;;4.53;1.20;;;;;;;-1.65;100.00;94000.16;2555895;23;20001;-83
2022/12/27 06:49:41;;;;;;;2.40;1.13;;;;;;;-1.59;100.00;93996.25;2556576;23;20016;-84
2022/12/27 06:50:42;;;;;;;2.63;1.30;;;;;;;-1.59;100.00;94002.28;2556933;23;20009;-85
2022/12/27 06:51:43;;;;;;;1.38;1.27;;;;;;;-1.59;100.00;94002.28;2556786;23;20521;-83
2022/12/27 06:52:44;;;;;;;2.03;1.27;;;;;;;-1.62;100.00;94013.41;2569155;23;20004;-84
2022/12/27 06:53:46;;;;;;;3.03;1.60;;;;;;;-1.57;100.00;94007.97;2569075;23;20108;-84
2022/12/27 06:54:47;;;;;;;4.45;2.55;;;;;;;-1.51;100.00;94008.56;2556836;23;20313;-83
2022/12/27 06:55:48;;;;;;;4.78;1.60;;;;;;;-1.46;100.00;94005.00;2556402;23;20015;-84
2022/12/27 06:56:49;;;;;;;2.08;1.50;;;;;;;-1.44;100.00;94010.69;2569088;23;20028;-82
2022/12/27 06:57:50;;;;;;;4.18;1.50;;;;;;;-1.47;100.00;94012.09;2556666;23;20008;-84
2022/12/27 06:58:51;;;;;;;2.53;1.55;;;;;;;-1.41;100.00;94015.28;2568437;22;19997;-84
2022/12/27 06:59:52;;;;;;;2.45;1.60;;;;;;;-1.44;100.00;94008.84;2568792;23;20008;-83
2022/12/27 07:00:53;;;;;;;9.77;3.97;;;;;;;-1.35;100.00;94014.03;2568694;23;20012;-85
2022/12/27 07:01:54;;;;;;;8.00;4.75;;;;;;;-1.40;100.00;94015.00;2556622;23;20002;-84